Terminal Aerodrome Forecast
Issued by NWS Mt. Holly, NJ

Home | Current Version | Previous Version | Text Only | Print | Product List | Glossary On
Versions: 1 2 3 4 5 6 7 8 9 10 11 12 13 14 15 16 17 18 19 20 21 22 23 24 25 26 27 28 29
000
FTUS41 KPHI 131700
TAFPHL
TAF
KPHL 131720Z 1318/1424 22012G20KT P6SM BKN040 BKN100
     FM131900 22012G20KT P6SM SCT040 BKN060
      TEMPO 1323/1401 3SM TSRA BR OVC020CB
     FM140100 21005KT P6SM BKN050
     FM140600 22004KT 5SM BR SCT035 BKN100
     FM141300 23008KT P6SM SCT030 BKN120
     FM141800 21012KT P6SM BKN040=

USA.gov is the U.S. government's official web portal to all federal, state and local government web resources and services.